Bernard, Maine
Current Conditions -  °F | °C
As of 11:15 PM on Tuesday 21 Oct 2014 (Local Time) from KBHB Reporting Station
Overcast Overcast  
Wind Chill: 50°   Ceiling: 1100
Heat Index: 50°   Visibility: 5mi
Dew Point: 48°   Wind: 12mph
Humidity: 94%   Direction: 50°NE
Pressure: 30.14"   Gusts: NA
Location:  44.24°N, 68.36°W
Report Text: KBHB 220315Z AUTO 05010KT 5SM SCT007 BKN011 OVC044 10/09 A3014 RMK AO1 P0003
Loading
Personal Weather Stations






























Interactive Weather Map
Tropical Storm Tracking
New forecast layout! Learn more

10-Day Weather Forecast

Advertisements
Track Severe Weather on mobile